Aviation Digital Data Service (ADDS)

Output produced by METARs form (1320 UTC 21 August 2019)
found at http://www.aviationweather.gov/metar/data/
 
METAR text: UUMO 211300Z 11002MPS 9999 BKN046 26/17 Q1024 R26/090060 NOSIG RMK QFE752/1003
Conditions at: UUMO (OSTAFYEVO INTL , RU) observed 1300 UTC 21 August 2019
Temperature: 26.0°C (79°F)
Dewpoint: 17.0°C (63°F) [RH = 58%]
Pressure (altimeter): 30.24 inches Hg (1024.0 mb)
Winds: from the ESE (110 degrees) at 5 MPH (4 knots; 2.1 m/s)
Visibility: 6 or more miles (10+ km)
Ceiling: 4600 feet AGL
Clouds: broken clouds at 4600 feet AGL
Weather: no significant weather observed at this time

METAR text: UUMO 211230Z 08002MPS 050V110 9999 BKN041 25/18 Q1024 R26/090060 NOSIG RMK QFE752/1003
Conditions at: UUMO (OSTAFYEVO INTL , RU) observed 1230 UTC 21 August 2019
Temperature: 25.0°C (77°F)
Dewpoint: 18.0°C (64°F) [RH = 65%]
Pressure (altimeter): 30.24 inches Hg (1024.0 mb)
Winds: from the E (80 degrees) at 5 MPH (4 knots; 2.1 m/s)
Visibility: 6 or more miles (10+ km)
Ceiling: 4100 feet AGL
Clouds: broken clouds at 4100 feet AGL
Weather: no significant weather observed at this time

METAR text: UUMO 211200Z 05003MPS 9999 BKN041 25/19 Q1024 R26/090060 NOSIG RMK QFE753/1004
Conditions at: UUMO (OSTAFYEVO INTL , RU) observed 1200 UTC 21 August 2019
Temperature: 25.0°C (77°F)
Dewpoint: 19.0°C (66°F) [RH = 69%]
Pressure (altimeter): 30.24 inches Hg (1024.0 mb)
Winds: from the NE (50 degrees) at 7 MPH (6 knots; 3.1 m/s)
Visibility: 6 or more miles (10+ km)
Ceiling: 4100 feet AGL
Clouds: broken clouds at 4100 feet AGL
Weather: no significant weather observed at this time

METAR text: UUMO 211130Z 03003MPS 330V050 9999 BKN040 25/17 Q1024 R26/090060 NOSIG RMK QFE753/1004
Conditions at: UUMO (OSTAFYEVO INTL , RU) observed 1130 UTC 21 August 2019
Temperature: 25.0°C (77°F)
Dewpoint: 17.0°C (63°F) [RH = 61%]
Pressure (altimeter): 30.24 inches Hg (1024.0 mb)
Winds: from the NNE (30 degrees) at 7 MPH (6 knots; 3.1 m/s)
Visibility: 6 or more miles (10+ km)
Ceiling: 4000 feet AGL
Clouds: broken clouds at 4000 feet AGL
Weather: no significant weather observed at this time

METAR text: UUMO 211100Z VRB01MPS 9999 BKN040 25/17 Q1024 R26/090060 NOSIG RMK QFE753/1004
Conditions at: UUMO (OSTAFYEVO INTL , RU) observed 1100 UTC 21 August 2019
Temperature: 25.0°C (77°F)
Dewpoint: 17.0°C (63°F) [RH = 61%]
Pressure (altimeter): 30.24 inches Hg (1024.0 mb)
Winds: variable direction winds at 2 MPH (2 knots; 1.0 m/s)
Visibility: 6 or more miles (10+ km)
Ceiling: 4000 feet AGL
Clouds: broken clouds at 4000 feet AGL
Weather: no significant weather observed at this time

METAR text: UUMO 211030Z VRB01MPS 9999 BKN033 26/18 Q1024 R26/090060 NOSIG RMK QFE753/1004
Conditions at: UUMO (OSTAFYEVO INTL , RU) observed 1030 UTC 21 August 2019
Temperature: 26.0°C (79°F)
Dewpoint: 18.0°C (64°F) [RH = 61%]
Pressure (altimeter): 30.24 inches Hg (1024.0 mb)
Winds: variable direction winds at 2 MPH (2 knots; 1.0 m/s)
Visibility: 6 or more miles (10+ km)
Ceiling: 3300 feet AGL
Clouds: broken clouds at 3300 feet AGL
Weather: no significant weather observed at this time

METAR text: UUMO 211000Z VRB01MPS 9999 BKN030 26/19 Q1025 R26/090060 NOSIG RMK QFE753/1004
Conditions at: UUMO (OSTAFYEVO INTL , RU) observed 1000 UTC 21 August 2019
Temperature: 26.0°C (79°F)
Dewpoint: 19.0°C (66°F) [RH = 65%]
Pressure (altimeter): 30.27 inches Hg (1025.0 mb)
Winds: variable direction winds at 2 MPH (2 knots; 1.0 m/s)
Visibility: 6 or more miles (10+ km)
Ceiling: 3000 feet AGL
Clouds: broken clouds at 3000 feet AGL
Weather: no significant weather observed at this time

METAR text: UUMO 210930Z VRB01MPS 9999 BKN030 25/19 Q1025 R26/090060 NOSIG RMK QFE753/1004
Conditions at: UUMO (OSTAFYEVO INTL , RU) observed 0930 UTC 21 August 2019
Temperature: 25.0°C (77°F)
Dewpoint: 19.0°C (66°F) [RH = 69%]
Pressure (altimeter): 30.27 inches Hg (1025.0 mb)
Winds: variable direction winds at 2 MPH (2 knots; 1.0 m/s)
Visibility: 6 or more miles (10+ km)
Ceiling: 3000 feet AGL
Clouds: broken clouds at 3000 feet AGL
Weather: no significant weather observed at this time

METAR text: UUMO 210900Z VRB01MPS 9999 BKN030 24/18 Q1025 R26/090060 NOSIG RMK QFE753/1004
Conditions at: UUMO (OSTAFYEVO INTL , RU) observed 0900 UTC 21 August 2019
Temperature: 24.0°C (75°F)
Dewpoint: 18.0°C (64°F) [RH = 69%]
Pressure (altimeter): 30.27 inches Hg (1025.0 mb)
Winds: variable direction winds at 2 MPH (2 knots; 1.0 m/s)
Visibility: 6 or more miles (10+ km)
Ceiling: 3000 feet AGL
Clouds: broken clouds at 3000 feet AGL
Weather: no significant weather observed at this time

METAR text: UUMO 210830Z 33003MPS 300V020 9999 BKN030 24/20 Q1025 R26/090060 NOSIG RMK QFE753/1004
Conditions at: UUMO (OSTAFYEVO INTL , RU) observed 0830 UTC 21 August 2019
Temperature: 24.0°C (75°F)
Dewpoint: 20.0°C (68°F) [RH = 78%]
Pressure (altimeter): 30.27 inches Hg (1025.0 mb)
Winds: from the NNW (330 degrees) at 7 MPH (6 knots; 3.1 m/s)
Visibility: 6 or more miles (10+ km)
Ceiling: 3000 feet AGL
Clouds: broken clouds at 3000 feet AGL
Weather: no significant weather observed at this time

METAR text: UUMO 210800Z VRB01MPS 9999 BKN026 24/18 Q1025 R26/090060 NOSIG RMK QFE753/1004
Conditions at: UUMO (OSTAFYEVO INTL , RU) observed 0800 UTC 21 August 2019
Temperature: 24.0°C (75°F)
Dewpoint: 18.0°C (64°F) [RH = 69%]
Pressure (altimeter): 30.27 inches Hg (1025.0 mb)
Winds: variable direction winds at 2 MPH (2 knots; 1.0 m/s)
Visibility: 6 or more miles (10+ km)
Ceiling: 2600 feet AGL
Clouds: broken clouds at 2600 feet AGL
Weather: no significant weather observed at this time

METAR text: UUMO 210730Z VRB01MPS 9999 BKN020 24/19 Q1025 R26/090060 NOSIG RMK QFE753/1004
Conditions at: UUMO (OSTAFYEVO INTL , RU) observed 0730 UTC 21 August 2019
Temperature: 24.0°C (75°F)
Dewpoint: 19.0°C (66°F) [RH = 74%]
Pressure (altimeter): 30.27 inches Hg (1025.0 mb)
Winds: variable direction winds at 2 MPH (2 knots; 1.0 m/s)
Visibility: 6 or more miles (10+ km)
Ceiling: 2000 feet AGL
Clouds: broken clouds at 2000 feet AGL
Weather: no significant weather observed at this time

METAR text: UUMO 210700Z VRB01MPS 9999 SCT020 BKN070 23/18 Q1025 R26/090060 NOSIG RMK QFE753/1004
Conditions at: UUMO (OSTAFYEVO INTL , RU) observed 0700 UTC 21 August 2019
Temperature: 23.0°C (73°F)
Dewpoint: 18.0°C (64°F) [RH = 73%]
Pressure (altimeter): 30.27 inches Hg (1025.0 mb)
Winds: variable direction winds at 2 MPH (2 knots; 1.0 m/s)
Visibility: 6 or more miles (10+ km)
Ceiling: 7000 feet AGL
Clouds: scattered clouds at 2000 feet AGL
broken clouds at 7000 feet AGL
Weather: no significant weather observed at this time

METAR text: UUMO 210630Z VRB01MPS 9999 SCT020 BKN070 23/20 Q1025 R26/090060 NOSIG RMK QFE753/1005
Conditions at: UUMO (OSTAFYEVO INTL , RU) observed 0630 UTC 21 August 2019
Temperature: 23.0°C (73°F)
Dewpoint: 20.0°C (68°F) [RH = 83%]
Pressure (altimeter): 30.27 inches Hg (1025.0 mb)
Winds: variable direction winds at 2 MPH (2 knots; 1.0 m/s)
Visibility: 6 or more miles (10+ km)
Ceiling: 7000 feet AGL
Clouds: scattered clouds at 2000 feet AGL
broken clouds at 7000 feet AGL
Weather: no significant weather observed at this time

METAR text: UUMO 210600Z VRB01MPS CAVOK 22/20 Q1025 R26/090060 NOSIG RMK QFE753/1004
Conditions at: UUMO (OSTAFYEVO INTL , RU) observed 0600 UTC 21 August 2019
Temperature: 22.0°C (72°F)
Dewpoint: 20.0°C (68°F) [RH = 88%]
Pressure (altimeter): 30.27 inches Hg (1025.0 mb)
Winds: variable direction winds at 2 MPH (2 knots; 1.0 m/s)
Visibility: 6 or more miles (10+ km)
Ceiling: ceiling and visibility are OK
Clouds: unknown
Weather: no significant weather observed at this time

METAR text: UUMO 210530Z 00000MPS CAVOK 21/21 Q1025 R26/090060 NOSIG RMK QFE753/1005
Conditions at: UUMO (OSTAFYEVO INTL , RU) observed 0530 UTC 21 August 2019
Temperature: 21.0°C (70°F)
Dewpoint: 21.0°C (70°F) [RH = 100%]
Pressure (altimeter): 30.27 inches Hg (1025.0 mb)
Winds: calm
Visibility: 6 or more miles (10+ km)
Ceiling: ceiling and visibility are OK
Clouds: unknown
Weather: no significant weather observed at this time

METAR text: UUMO 210500Z VRB01MPS CAVOK 19/19 Q1025 R26/090060 NOSIG RMK QFE753/1005
Conditions at: UUMO (OSTAFYEVO INTL , RU) observed 0500 UTC 21 August 2019
Temperature: 19.0°C (66°F)
Dewpoint: 19.0°C (66°F) [RH = 100%]
Pressure (altimeter): 30.27 inches Hg (1025.0 mb)
Winds: variable direction winds at 2 MPH (2 knots; 1.0 m/s)
Visibility: 6 or more miles (10+ km)
Ceiling: ceiling and visibility are OK
Clouds: unknown
Weather: no significant weather observed at this time

METAR text: UUMO 210430Z 00000MPS 7000 NSC 17/17 Q1025 R26/090060 NOSIG RMK QFE753/1004
Conditions at: UUMO (OSTAFYEVO INTL , RU) observed 0430 UTC 21 August 2019
Temperature: 17.0°C (63°F)
Dewpoint: 17.0°C (63°F) [RH = 100%]
Pressure (altimeter): 30.27 inches Hg (1025.0 mb)
Winds: calm
Visibility: 4 miles ( 7 km)
Ceiling: at least 12,000 feet AGL
Clouds: sky clear below 12,000 feet AGL
Weather: no significant weather observed at this time

METAR text: UUMO 210400Z 00000MPS 8000 NSC 17/17 Q1025 R26/090060 NOSIG RMK QFE753/1004
Conditions at: UUMO (OSTAFYEVO INTL , RU) observed 0400 UTC 21 August 2019
Temperature: 17.0°C (63°F)
Dewpoint: 17.0°C (63°F) [RH = 100%]
Pressure (altimeter): 30.27 inches Hg (1025.0 mb)
Winds: calm
Visibility: 5 miles ( 8 km)
Ceiling: at least 12,000 feet AGL
Clouds: sky clear below 12,000 feet AGL
Weather: no significant weather observed at this time

METAR text: UUMO 210330Z VRB01MPS 0200 R26/0200 FG NSC 16/16 Q1025 R26/090060 NOSIG RMK QFE753/1004
Conditions at: UUMO (OSTAFYEVO INTL , RU) observed 0330 UTC 21 August 2019
Temperature: 16.0°C (61°F)
Dewpoint: 16.0°C (61°F) [RH = 100%]
Pressure (altimeter): 30.27 inches Hg (1025.0 mb)
Winds: variable direction winds at 2 MPH (2 knots; 1.0 m/s)
Visibility: 0.12 miles (0.19 km)
Ceiling: at least 12,000 feet AGL
Clouds: sky clear below 12,000 feet AGL
Weather: FG  (fog)

METAR text: UUMO 210300Z 00000MPS 5000 BR NSC 16/16 Q1024 R26/090060 NOSIG RMK QFE753/1004
Conditions at: UUMO (OSTAFYEVO INTL , RU) observed 0300 UTC 21 August 2019
Temperature: 16.0°C (61°F)
Dewpoint: 16.0°C (61°F) [RH = 100%]
Pressure (altimeter): 30.24 inches Hg (1024.0 mb)
Winds: calm
Visibility: 3 miles ( 5 km)
Ceiling: at least 12,000 feet AGL
Clouds: sky clear below 12,000 feet AGL
Weather: BR  (mist)

METAR text: UUMO 210230Z 00000MPS 0250 R26/0250 FG NSC 15/15 Q1025 R26/090060 NOSIG RMK QFE753/1004
Conditions at: UUMO (OSTAFYEVO INTL , RU) observed 0230 UTC 21 August 2019
Temperature: 15.0°C (59°F)
Dewpoint: 15.0°C (59°F) [RH = 100%]
Pressure (altimeter): 30.27 inches Hg (1025.0 mb)
Winds: calm
Visibility: 0.16 miles (0.26 km)
Ceiling: at least 12,000 feet AGL
Clouds: sky clear below 12,000 feet AGL
Weather: FG  (fog)

METAR text: UUMO 210200Z 00000MPS 0200 R26/0200N FG NSC 15/15 Q1024 R26/090060 NOSIG RMK QFE753/1004
Conditions at: UUMO (OSTAFYEVO INTL , RU) observed 0200 UTC 21 August 2019
Temperature: 15.0°C (59°F)
Dewpoint: 15.0°C (59°F) [RH = 100%]
Pressure (altimeter): 30.24 inches Hg (1024.0 mb)
Winds: calm
Visibility: 0.12 miles (0.19 km)
Ceiling: at least 12,000 feet AGL
Clouds: sky clear below 12,000 feet AGL
Weather: FG  (fog)

METAR text: UUMO 210130Z 00000MPS 0150 R26/0150N FG NSC 16/16 Q1024 R26/090060 NOSIG RMK QFE752/1003
Conditions at: UUMO (OSTAFYEVO INTL , RU) observed 0130 UTC 21 August 2019
Temperature: 16.0°C (61°F)
Dewpoint: 16.0°C (61°F) [RH = 100%]
Pressure (altimeter): 30.24 inches Hg (1024.0 mb)
Winds: calm
Visibility: 0.09 miles (0.14 km)
Ceiling: at least 12,000 feet AGL
Clouds: sky clear below 12,000 feet AGL
Weather: FG  (fog)

METAR text: UUMO 210100Z 23001MPS 0100 R26/0125 FG NSC 15/15 Q1024 R26/090060 NOSIG RMK QFE752/1003
Conditions at: UUMO (OSTAFYEVO INTL , RU) observed 0100 UTC 21 August 2019
Temperature: 15.0°C (59°F)
Dewpoint: 15.0°C (59°F) [RH = 100%]
Pressure (altimeter): 30.24 inches Hg (1024.0 mb)
Winds: from the SW (230 degrees) at 2 MPH (2 knots; 1.0 m/s)
Visibility: 0.06 miles (0.10 km)
Ceiling: at least 12,000 feet AGL
Clouds: sky clear below 12,000 feet AGL
Weather: FG  (fog)

METAR text: UUMO 202300Z 00000MPS 5000 BR NSC 17/17 Q1024 R26/090060 NOSIG RMK QFE752/1003
Conditions at: UUMO (OSTAFYEVO INTL , RU) observed 2300 UTC 20 August 2019
Temperature: 17.0°C (63°F)
Dewpoint: 17.0°C (63°F) [RH = 100%]
Pressure (altimeter): 30.24 inches Hg (1024.0 mb)
Winds: calm
Visibility: 3 miles ( 5 km)
Ceiling: at least 12,000 feet AGL
Clouds: sky clear below 12,000 feet AGL
Weather: BR  (mist)

METAR text: UUMO 202230Z 00000MPS 4000 BR NSC 17/17 Q1024 R26/090060 NOSIG RMK QFE752/1003
Conditions at: UUMO (OSTAFYEVO INTL , RU) observed 2230 UTC 20 August 2019
Temperature: 17.0°C (63°F)
Dewpoint: 17.0°C (63°F) [RH = 100%]
Pressure (altimeter): 30.24 inches Hg (1024.0 mb)
Winds: calm
Visibility: 2.49 miles (4.01 km)
Ceiling: at least 12,000 feet AGL
Clouds: sky clear below 12,000 feet AGL
Weather: BR  (mist)

METAR text: UUMO 202200Z 28001MPS CAVOK 17/17 Q1024 R26/090060 NOSIG RMK QFE752/1003
Conditions at: UUMO (OSTAFYEVO INTL , RU) observed 2200 UTC 20 August 2019
Temperature: 17.0°C (63°F)
Dewpoint: 17.0°C (63°F) [RH = 100%]
Pressure (altimeter): 30.24 inches Hg (1024.0 mb)
Winds: from the W (280 degrees) at 2 MPH (2 knots; 1.0 m/s)
Visibility: 6 or more miles (10+ km)
Ceiling: ceiling and visibility are OK
Clouds: unknown
Weather: no significant weather observed at this time

METAR text: UUMO 202130Z 00000MPS CAVOK 18/18 Q1023 R26/090060 NOSIG RMK QFE752/1003
Conditions at: UUMO (OSTAFYEVO INTL , RU) observed 2130 UTC 20 August 2019
Temperature: 18.0°C (64°F)
Dewpoint: 18.0°C (64°F) [RH = 100%]
Pressure (altimeter): 30.21 inches Hg (1023.0 mb)
Winds: calm
Visibility: 6 or more miles (10+ km)
Ceiling: ceiling and visibility are OK
Clouds: unknown
Weather: no significant weather observed at this time

METAR text: UUMO 202100Z 30002MPS 270V330 CAVOK 18/18 Q1023 R26/090060 NOSIG RMK QFE752/1003
Conditions at: UUMO (OSTAFYEVO INTL , RU) observed 2100 UTC 20 August 2019
Temperature: 18.0°C (64°F)
Dewpoint: 18.0°C (64°F) [RH = 100%]
Pressure (altimeter): 30.21 inches Hg (1023.0 mb)
Winds: from the WNW (300 degrees) at 5 MPH (4 knots; 2.1 m/s)
Visibility: 6 or more miles (10+ km)
Ceiling: ceiling and visibility are OK
Clouds: unknown
Weather: no significant weather observed at this time

METAR text: UUMO 202030Z 28001MPS CAVOK 18/18 Q1023 R26/090060 NOSIG RMK QFE752/1002
Conditions at: UUMO (OSTAFYEVO INTL , RU) observed 2030 UTC 20 August 2019
Temperature: 18.0°C (64°F)
Dewpoint: 18.0°C (64°F) [RH = 100%]
Pressure (altimeter): 30.21 inches Hg (1023.0 mb)
Winds: from the W (280 degrees) at 2 MPH (2 knots; 1.0 m/s)
Visibility: 6 or more miles (10+ km)
Ceiling: ceiling and visibility are OK
Clouds: unknown
Weather: no significant weather observed at this time

METAR text: UUMO 202000Z VRB01MPS CAVOK 19/19 Q1023 R26/090060 NOSIG RMK QFE751/1002
Conditions at: UUMO (OSTAFYEVO INTL , RU) observed 2000 UTC 20 August 2019
Temperature: 19.0°C (66°F)
Dewpoint: 19.0°C (66°F) [RH = 100%]
Pressure (altimeter): 30.21 inches Hg (1023.0 mb)
Winds: variable direction winds at 2 MPH (2 knots; 1.0 m/s)
Visibility: 6 or more miles (10+ km)
Ceiling: ceiling and visibility are OK
Clouds: unknown
Weather: no significant weather observed at this time

METAR text: UUMO 201930Z 00000MPS CAVOK 20/20 Q1023 R26/090060 NOSIG RMK QFE751/1002
Conditions at: UUMO (OSTAFYEVO INTL , RU) observed 1930 UTC 20 August 2019
Temperature: 20.0°C (68°F)
Dewpoint: 20.0°C (68°F) [RH = 100%]
Pressure (altimeter): 30.21 inches Hg (1023.0 mb)
Winds: calm
Visibility: 6 or more miles (10+ km)
Ceiling: ceiling and visibility are OK
Clouds: unknown
Weather: no significant weather observed at this time

METAR text: UUMO 201900Z 25001MPS CAVOK 21/19 Q1023 R26/090060 NOSIG RMK QFE751/1002
Conditions at: UUMO (OSTAFYEVO INTL , RU) observed 1900 UTC 20 August 2019
Temperature: 21.0°C (70°F)
Dewpoint: 19.0°C (66°F) [RH = 88%]
Pressure (altimeter): 30.21 inches Hg (1023.0 mb)
Winds: from the WSW (250 degrees) at 2 MPH (2 knots; 1.0 m/s)
Visibility: 6 or more miles (10+ km)
Ceiling: ceiling and visibility are OK
Clouds: unknown
Weather: no significant weather observed at this time

METAR text: UUMO 201830Z VRB01MPS CAVOK 20/18 Q1023 R26/090060 NOSIG RMK QFE752/1002
Conditions at: UUMO (OSTAFYEVO INTL , RU) observed 1830 UTC 20 August 2019
Temperature: 20.0°C (68°F)
Dewpoint: 18.0°C (64°F) [RH = 88%]
Pressure (altimeter): 30.21 inches Hg (1023.0 mb)
Winds: variable direction winds at 2 MPH (2 knots; 1.0 m/s)
Visibility: 6 or more miles (10+ km)
Ceiling: ceiling and visibility are OK
Clouds: unknown
Weather: no significant weather observed at this time

METAR text: UUMO 201800Z 31003MPS CAVOK 20/18 Q1023 R26/090060 NOSIG RMK QFE752/1002
Conditions at: UUMO (OSTAFYEVO INTL , RU) observed 1800 UTC 20 August 2019
Temperature: 20.0°C (68°F)
Dewpoint: 18.0°C (64°F) [RH = 88%]
Pressure (altimeter): 30.21 inches Hg (1023.0 mb)
Winds: from the NW (310 degrees) at 7 MPH (6 knots; 3.1 m/s)
Visibility: 6 or more miles (10+ km)
Ceiling: ceiling and visibility are OK
Clouds: unknown
Weather: no significant weather observed at this time

METAR text: UUMO 201730Z 21002MPS CAVOK 21/17 Q1023 R26/090060 NOSIG RMK QFE751/1002
Conditions at: UUMO (OSTAFYEVO INTL , RU) observed 1730 UTC 20 August 2019
Temperature: 21.0°C (70°F)
Dewpoint: 17.0°C (63°F) [RH = 78%]
Pressure (altimeter): 30.21 inches Hg (1023.0 mb)
Winds: from the SSW (210 degrees) at 5 MPH (4 knots; 2.1 m/s)
Visibility: 6 or more miles (10+ km)
Ceiling: ceiling and visibility are OK
Clouds: unknown
Weather: no significant weather observed at this time

METAR text: UUMO 201700Z 19002MPS CAVOK 24/17 Q1022 R26/090060 NOSIG RMK QFE751/1002
Conditions at: UUMO (OSTAFYEVO INTL , RU) observed 1700 UTC 20 August 2019
Temperature: 24.0°C (75°F)
Dewpoint: 17.0°C (63°F) [RH = 65%]
Pressure (altimeter): 30.18 inches Hg (1022.0 mb)
Winds: from the S (190 degrees) at 5 MPH (4 knots; 2.1 m/s)
Visibility: 6 or more miles (10+ km)
Ceiling: ceiling and visibility are OK
Clouds: unknown
Weather: no significant weather observed at this time

METAR text: UUMO 201630Z 21002MPS CAVOK 24/16 Q1022 R26/090060 NOSIG RMK QFE751/1002
Conditions at: UUMO (OSTAFYEVO INTL , RU) observed 1630 UTC 20 August 2019
Temperature: 24.0°C (75°F)
Dewpoint: 16.0°C (61°F) [RH = 61%]
Pressure (altimeter): 30.18 inches Hg (1022.0 mb)
Winds: from the SSW (210 degrees) at 5 MPH (4 knots; 2.1 m/s)
Visibility: 6 or more miles (10+ km)
Ceiling: ceiling and visibility are OK
Clouds: unknown
Weather: no significant weather observed at this time

METAR text: UUMO 201600Z 22003MPS CAVOK 25/16 Q1022 R26/090060 NOSIG RMK QFE751/1002
Conditions at: UUMO (OSTAFYEVO INTL , RU) observed 1600 UTC 20 August 2019
Temperature: 25.0°C (77°F)
Dewpoint: 16.0°C (61°F) [RH = 57%]
Pressure (altimeter): 30.18 inches Hg (1022.0 mb)
Winds: from the SW (220 degrees) at 7 MPH (6 knots; 3.1 m/s)
Visibility: 6 or more miles (10+ km)
Ceiling: ceiling and visibility are OK
Clouds: unknown
Weather: no significant weather observed at this time

METAR text: UUMO 201530Z 23003MPS CAVOK 26/16 Q1022 R26/090060 NOSIG RMK QFE751/1001
Conditions at: UUMO (OSTAFYEVO INTL , RU) observed 1530 UTC 20 August 2019
Temperature: 26.0°C (79°F)
Dewpoint: 16.0°C (61°F) [RH = 54%]
Pressure (altimeter): 30.18 inches Hg (1022.0 mb)
Winds: from the SW (230 degrees) at 7 MPH (6 knots; 3.1 m/s)
Visibility: 6 or more miles (10+ km)
Ceiling: ceiling and visibility are OK
Clouds: unknown
Weather: no significant weather observed at this time

METAR text: UUMO 201500Z 22003MPS CAVOK 26/16 Q1022 R26/090060 NOSIG RMK QFE751/1001
Conditions at: UUMO (OSTAFYEVO INTL , RU) observed 1500 UTC 20 August 2019
Temperature: 26.0°C (79°F)
Dewpoint: 16.0°C (61°F) [RH = 54%]
Pressure (altimeter): 30.18 inches Hg (1022.0 mb)
Winds: from the SW (220 degrees) at 7 MPH (6 knots; 3.1 m/s)
Visibility: 6 or more miles (10+ km)
Ceiling: ceiling and visibility are OK
Clouds: unknown
Weather: no significant weather observed at this time

METAR text: UUMO 201430Z 22003MPS 180V250 CAVOK 27/16 Q1021 R26/090060 NOSIG RMK QFE751/1001
Conditions at: UUMO (OSTAFYEVO INTL , RU) observed 1430 UTC 20 August 2019
Temperature: 27.0°C (81°F)
Dewpoint: 16.0°C (61°F) [RH = 51%]
Pressure (altimeter): 30.15 inches Hg (1021.0 mb)
Winds: from the SW (220 degrees) at 7 MPH (6 knots; 3.1 m/s)
Visibility: 6 or more miles (10+ km)
Ceiling: ceiling and visibility are OK
Clouds: unknown
Weather: no significant weather observed at this time

METAR text: UUMO 201400Z 25004MPS 220V280 CAVOK 27/16 Q1021 R26/090060 NOSIG RMK QFE751/1001
Conditions at: UUMO (OSTAFYEVO INTL , RU) observed 1400 UTC 20 August 2019
Temperature: 27.0°C (81°F)
Dewpoint: 16.0°C (61°F) [RH = 51%]
Pressure (altimeter): 30.15 inches Hg (1021.0 mb)
Winds: from the WSW (250 degrees) at 9 MPH (8 knots; 4.1 m/s)
Visibility: 6 or more miles (10+ km)
Ceiling: ceiling and visibility are OK
Clouds: unknown
Weather: no significant weather observed at this time

METAR text: UUMO 201330Z 24004MPS 200V260 CAVOK 27/17 Q1021 R26/090060 NOSIG RMK QFE751/1001
Conditions at: UUMO (OSTAFYEVO INTL , RU) observed 1330 UTC 20 August 2019
Temperature: 27.0°C (81°F)
Dewpoint: 17.0°C (63°F) [RH = 54%]
Pressure (altimeter): 30.15 inches Hg (1021.0 mb)
Winds: from the WSW (240 degrees) at 9 MPH (8 knots; 4.1 m/s)
Visibility: 6 or more miles (10+ km)
Ceiling: ceiling and visibility are OK
Clouds: unknown
Weather: no significant weather observed at this time

METAR text: UUMO 201300Z 24004MPS CAVOK 27/16 Q1021 R26/090060 NOSIG RMK QFE751/1001
Conditions at: UUMO (OSTAFYEVO INTL , RU) observed 1300 UTC 20 August 2019
Temperature: 27.0°C (81°F)
Dewpoint: 16.0°C (61°F) [RH = 51%]
Pressure (altimeter): 30.15 inches Hg (1021.0 mb)
Winds: from the WSW (240 degrees) at 9 MPH (8 knots; 4.1 m/s)
Visibility: 6 or more miles (10+ km)
Ceiling: ceiling and visibility are OK
Clouds: unknown
Weather: no significant weather observed at this time

METAR text: UUMO 201230Z 25004MPS 220V290 CAVOK 27/16 Q1021 R26/090060 NOSIG RMK QFE751/1001
Conditions at: UUMO (OSTAFYEVO INTL , RU) observed 1230 UTC 20 August 2019
Temperature: 27.0°C (81°F)
Dewpoint: 16.0°C (61°F) [RH = 51%]
Pressure (altimeter): 30.15 inches Hg (1021.0 mb)
Winds: from the WSW (250 degrees) at 9 MPH (8 knots; 4.1 m/s)
Visibility: 6 or more miles (10+ km)
Ceiling: ceiling and visibility are OK
Clouds: unknown
Weather: no significant weather observed at this time

METAR text: UUMO 201200Z 24004MPS 200V270 CAVOK 27/16 Q1022 R26/090060 NOSIG RMK QFE751/1001
Conditions at: UUMO (OSTAFYEVO INTL , RU) observed 1200 UTC 20 August 2019
Temperature: 27.0°C (81°F)
Dewpoint: 16.0°C (61°F) [RH = 51%]
Pressure (altimeter): 30.18 inches Hg (1022.0 mb)
Winds: from the WSW (240 degrees) at 9 MPH (8 knots; 4.1 m/s)
Visibility: 6 or more miles (10+ km)
Ceiling: ceiling and visibility are OK
Clouds: unknown
Weather: no significant weather observed at this time

METAR text: UUMO 201130Z 22003MPS 180V260 CAVOK 27/17 Q1022 R26/090060 NOSIG RMK QFE751/1001
Conditions at: UUMO (OSTAFYEVO INTL , RU) observed 1130 UTC 20 August 2019
Temperature: 27.0°C (81°F)
Dewpoint: 17.0°C (63°F) [RH = 54%]
Pressure (altimeter): 30.18 inches Hg (1022.0 mb)
Winds: from the SW (220 degrees) at 7 MPH (6 knots; 3.1 m/s)
Visibility: 6 or more miles (10+ km)
Ceiling: ceiling and visibility are OK
Clouds: unknown
Weather: no significant weather observed at this time

METAR text: UUMO 201100Z 25004MPS 220V290 CAVOK 27/17 Q1022 R26/090060 NOSIG RMK QFE751/1001
Conditions at: UUMO (OSTAFYEVO INTL , RU) observed 1100 UTC 20 August 2019
Temperature: 27.0°C (81°F)
Dewpoint: 17.0°C (63°F) [RH = 54%]
Pressure (altimeter): 30.18 inches Hg (1022.0 mb)
Winds: from the WSW (250 degrees) at 9 MPH (8 knots; 4.1 m/s)
Visibility: 6 or more miles (10+ km)
Ceiling: ceiling and visibility are OK
Clouds: unknown
Weather: no significant weather observed at this time

METAR text: UUMO 201030Z 23004MPS 200V260 CAVOK 27/17 Q1022 R26/090060 NOSIG RMK QFE751/1001
Conditions at: UUMO (OSTAFYEVO INTL , RU) observed 1030 UTC 20 August 2019
Temperature: 27.0°C (81°F)
Dewpoint: 17.0°C (63°F) [RH = 54%]
Pressure (altimeter): 30.18 inches Hg (1022.0 mb)
Winds: from the SW (230 degrees) at 9 MPH (8 knots; 4.1 m/s)
Visibility: 6 or more miles (10+ km)
Ceiling: ceiling and visibility are OK
Clouds: unknown
Weather: no significant weather observed at this time

METAR text: UUMO 201000Z 23004MPS 180V330 CAVOK 26/16 Q1022 R26/090060 NOSIG RMK QFE751/1001
Conditions at: UUMO (OSTAFYEVO INTL , RU) observed 1000 UTC 20 August 2019
Temperature: 26.0°C (79°F)
Dewpoint: 16.0°C (61°F) [RH = 54%]
Pressure (altimeter): 30.18 inches Hg (1022.0 mb)
Winds: from the SW (230 degrees) at 9 MPH (8 knots; 4.1 m/s)
Visibility: 6 or more miles (10+ km)
Ceiling: ceiling and visibility are OK
Clouds: unknown
Weather: no significant weather observed at this time

METAR text: UUMO 200930Z 26003MPS CAVOK 26/16 Q1022 R26/090060 NOSIG RMK QFE751/1001
Conditions at: UUMO (OSTAFYEVO INTL , RU) observed 0930 UTC 20 August 2019
Temperature: 26.0°C (79°F)
Dewpoint: 16.0°C (61°F) [RH = 54%]
Pressure (altimeter): 30.18 inches Hg (1022.0 mb)
Winds: from the W (260 degrees) at 7 MPH (6 knots; 3.1 m/s)
Visibility: 6 or more miles (10+ km)
Ceiling: ceiling and visibility are OK
Clouds: unknown
Weather: no significant weather observed at this time

METAR text: UUMO 200900Z 25003MPS 220V280 CAVOK 26/16 Q1022 R26/090060 NOSIG RMK QFE751/1001
Conditions at: UUMO (OSTAFYEVO INTL , RU) observed 0900 UTC 20 August 2019
Temperature: 26.0°C (79°F)
Dewpoint: 16.0°C (61°F) [RH = 54%]
Pressure (altimeter): 30.18 inches Hg (1022.0 mb)
Winds: from the WSW (250 degrees) at 7 MPH (6 knots; 3.1 m/s)
Visibility: 6 or more miles (10+ km)
Ceiling: ceiling and visibility are OK
Clouds: unknown
Weather: no significant weather observed at this time

METAR text: UUMO 200830Z 24004MPS 200V270 CAVOK 25/16 Q1022 R26/090060 NOSIG RMK QFE751/1001
Conditions at: UUMO (OSTAFYEVO INTL , RU) observed 0830 UTC 20 August 2019
Temperature: 25.0°C (77°F)
Dewpoint: 16.0°C (61°F) [RH = 57%]
Pressure (altimeter): 30.18 inches Hg (1022.0 mb)
Winds: from the WSW (240 degrees) at 9 MPH (8 knots; 4.1 m/s)
Visibility: 6 or more miles (10+ km)
Ceiling: ceiling and visibility are OK
Clouds: unknown
Weather: no significant weather observed at this time

METAR text: UUMO 200800Z 24004MPS 200V270 CAVOK 25/16 Q1022 R26/090060 NOSIG RMK QFE751/1001
Conditions at: UUMO (OSTAFYEVO INTL , RU) observed 0800 UTC 20 August 2019
Temperature: 25.0°C (77°F)
Dewpoint: 16.0°C (61°F) [RH = 57%]
Pressure (altimeter): 30.18 inches Hg (1022.0 mb)
Winds: from the WSW (240 degrees) at 9 MPH (8 knots; 4.1 m/s)
Visibility: 6 or more miles (10+ km)
Ceiling: ceiling and visibility are OK
Clouds: unknown
Weather: no significant weather observed at this time

METAR text: UUMO 200730Z 25003MPS 210V280 CAVOK 24/17 Q1022 R26/090060 NOSIG RMK QFE751/1002
Conditions at: UUMO (OSTAFYEVO INTL , RU) observed 0730 UTC 20 August 2019
Temperature: 24.0°C (75°F)
Dewpoint: 17.0°C (63°F) [RH = 65%]
Pressure (altimeter): 30.18 inches Hg (1022.0 mb)
Winds: from the WSW (250 degrees) at 7 MPH (6 knots; 3.1 m/s)
Visibility: 6 or more miles (10+ km)
Ceiling: ceiling and visibility are OK
Clouds: unknown
Weather: no significant weather observed at this time

METAR text: UUMO 200700Z 24003MPS 210V280 CAVOK 23/17 Q1022 R26/090060 NOSIG RMK QFE751/1002
Conditions at: UUMO (OSTAFYEVO INTL , RU) observed 0700 UTC 20 August 2019
Temperature: 23.0°C (73°F)
Dewpoint: 17.0°C (63°F) [RH = 69%]
Pressure (altimeter): 30.18 inches Hg (1022.0 mb)
Winds: from the WSW (240 degrees) at 7 MPH (6 knots; 3.1 m/s)
Visibility: 6 or more miles (10+ km)
Ceiling: ceiling and visibility are OK
Clouds: unknown
Weather: no significant weather observed at this time

METAR text: UUMO 200630Z 22002MPS 180V260 CAVOK 21/17 Q1022 R26/090060 NOSIG RMK QFE751/1002
Conditions at: UUMO (OSTAFYEVO INTL , RU) observed 0630 UTC 20 August 2019
Temperature: 21.0°C (70°F)
Dewpoint: 17.0°C (63°F) [RH = 78%]
Pressure (altimeter): 30.18 inches Hg (1022.0 mb)
Winds: from the SW (220 degrees) at 5 MPH (4 knots; 2.1 m/s)
Visibility: 6 or more miles (10+ km)
Ceiling: ceiling and visibility are OK
Clouds: unknown
Weather: no significant weather observed at this time

METAR text: UUMO 200600Z 19002MPS 150V240 CAVOK 20/18 Q1022 R26/090060 NOSIG RMK QFE751/1002
Conditions at: UUMO (OSTAFYEVO INTL , RU) observed 0600 UTC 20 August 2019
Temperature: 20.0°C (68°F)
Dewpoint: 18.0°C (64°F) [RH = 88%]
Pressure (altimeter): 30.18 inches Hg (1022.0 mb)
Winds: from the S (190 degrees) at 5 MPH (4 knots; 2.1 m/s)
Visibility: 6 or more miles (10+ km)
Ceiling: ceiling and visibility are OK
Clouds: unknown
Weather: no significant weather observed at this time

METAR text: UUMO 200530Z VRB01MPS CAVOK 18/17 Q1022 R26/090060 NOSIG RMK QFE751/1002
Conditions at: UUMO (OSTAFYEVO INTL , RU) observed 0530 UTC 20 August 2019
Temperature: 18.0°C (64°F)
Dewpoint: 17.0°C (63°F) [RH = 94%]
Pressure (altimeter): 30.18 inches Hg (1022.0 mb)
Winds: variable direction winds at 2 MPH (2 knots; 1.0 m/s)
Visibility: 6 or more miles (10+ km)
Ceiling: ceiling and visibility are OK
Clouds: unknown
Weather: no significant weather observed at this time

METAR text: UUMO 200500Z 20002MPS CAVOK 17/16 Q1022 R26/090060 NOSIG RMK QFE751/1002
Conditions at: UUMO (OSTAFYEVO INTL , RU) observed 0500 UTC 20 August 2019
Temperature: 17.0°C (63°F)
Dewpoint: 16.0°C (61°F) [RH = 94%]
Pressure (altimeter): 30.18 inches Hg (1022.0 mb)
Winds: from the SSW (200 degrees) at 5 MPH (4 knots; 2.1 m/s)
Visibility: 6 or more miles (10+ km)
Ceiling: ceiling and visibility are OK
Clouds: unknown
Weather: no significant weather observed at this time

METAR text: UUMO 200430Z 19002MPS CAVOK 16/16 Q1022 R26/090060 NOSIG RMK QFE751/1001
Conditions at: UUMO (OSTAFYEVO INTL , RU) observed 0430 UTC 20 August 2019
Temperature: 16.0°C (61°F)
Dewpoint: 16.0°C (61°F) [RH = 100%]
Pressure (altimeter): 30.18 inches Hg (1022.0 mb)
Winds: from the S (190 degrees) at 5 MPH (4 knots; 2.1 m/s)
Visibility: 6 or more miles (10+ km)
Ceiling: ceiling and visibility are OK
Clouds: unknown
Weather: no significant weather observed at this time

METAR text: UUMO 200400Z VRB01MPS 6000 NSC 15/15 Q1022 R26/090060 NOSIG RMK QFE751/1001
Conditions at: UUMO (OSTAFYEVO INTL , RU) observed 0400 UTC 20 August 2019
Temperature: 15.0°C (59°F)
Dewpoint: 15.0°C (59°F) [RH = 100%]
Pressure (altimeter): 30.18 inches Hg (1022.0 mb)
Winds: variable direction winds at 2 MPH (2 knots; 1.0 m/s)
Visibility: 4 miles ( 6 km)
Ceiling: at least 12,000 feet AGL
Clouds: sky clear below 12,000 feet AGL
Weather: no significant weather observed at this time

METAR text: UUMO 200330Z VRB01MPS 6000 NSC 14/14 Q1022 R26/090060 NOSIG RMK QFE751/1001
Conditions at: UUMO (OSTAFYEVO INTL , RU) observed 0330 UTC 20 August 2019
Temperature: 14.0°C (57°F)
Dewpoint: 14.0°C (57°F) [RH = 100%]
Pressure (altimeter): 30.18 inches Hg (1022.0 mb)
Winds: variable direction winds at 2 MPH (2 knots; 1.0 m/s)
Visibility: 4 miles ( 6 km)
Ceiling: at least 12,000 feet AGL
Clouds: sky clear below 12,000 feet AGL
Weather: no significant weather observed at this time

METAR text: UUMO 200300Z 00000MPS 7000 MIFG NSC 13/13 Q1021 R26/090060 NOSIG RMK QFE751/1001
Conditions at: UUMO (OSTAFYEVO INTL , RU) observed 0300 UTC 20 August 2019
Temperature: 13.0°C (55°F)
Dewpoint: 13.0°C (55°F) [RH = 100%]
Pressure (altimeter): 30.15 inches Hg (1021.0 mb)
Winds: calm
Visibility: 4 miles ( 7 km)
Ceiling: at least 12,000 feet AGL
Clouds: sky clear below 12,000 feet AGL
Weather: MIFG  (shallow fog)

METAR text: UUMO 200230Z 00000MPS 1000 R26/1000 BR NSC 11/11 Q1021 R26/090060 NOSIG RMK QFE750/1001
Conditions at: UUMO (OSTAFYEVO INTL , RU) observed 0230 UTC 20 August 2019
Temperature: 11.0°C (52°F)
Dewpoint: 11.0°C (52°F) [RH = 100%]
Pressure (altimeter): 30.15 inches Hg (1021.0 mb)
Winds: calm
Visibility: 0.62 miles (1.00 km)
Ceiling: at least 12,000 feet AGL
Clouds: sky clear below 12,000 feet AGL
Weather: BR  (mist)

METAR text: UUMO 200200Z 00000MPS 0500 R26/0900 FG NSC 13/13 Q1021 R26/090060 NOSIG RMK QFE750/1001
Conditions at: UUMO (OSTAFYEVO INTL , RU) observed 0200 UTC 20 August 2019
Temperature: 13.0°C (55°F)
Dewpoint: 13.0°C (55°F) [RH = 100%]
Pressure (altimeter): 30.15 inches Hg (1021.0 mb)
Winds: calm
Visibility: 0.31 miles (0.50 km)
Ceiling: at least 12,000 feet AGL
Clouds: sky clear below 12,000 feet AGL
Weather: FG  (fog)

Forecast for: UUMO (OSTAFYEVO INTL , RU)
Text: TAF UUMO 211048Z 2112/2121 06003MPS 9999 BKN040
Forecast period: 1200 to 2100 UTC 21 August 2019
Forecast type: FROM: standard forecast or significant change
Winds: from the ENE (60 degrees) at 7 MPH (6 knots; 3.1 m/s)
Visibility: 6 or more miles 10+ km)
Ceiling: 4000 feet AGL
Clouds: broken clouds at 4000 feet AGL
Weather: no significant weather forecast for this period